TVS2865 DTTJ-LKPR
Flight info
| Callsign | TVS2865 |
|---|---|
| Flight time | 2h 34m |
| Altitude | 37000 |
| Route | RALAK DCT PAN/N0444F360 DCT PNZ DCT NIKOL/N0440F370 DCT LIMRA/N0439F380 DCT BUDEX DCT APRAQ |
| Aircraft | B738/M-SDFGHIJ1LORVWXYZ/LB1 |
Departure
| Time | 2026-04-26 08:59 |
|---|---|
| Airport | Djerba Zarzis International Airport (DTTJ) |
Arrival
| Time | 2026-04-26 11:34 |
|---|---|
| Airport | Václav Havel Airport Prague (LKPR) |
| Time | Latitude | Longitude | Altitude | Speed | Heading |
|---|---|---|---|---|---|
| 2026-04-26 07:59 | 33.87162 | 10.77282 | 26 ft | 0 kts | 142° |
| 2026-04-26 08:47 | 33.87175 | 10.77269 | 26 ft | 3 kts | 140° |
| 2026-04-26 08:48 | 33.87191 | 10.77253 | 26 ft | 3 kts | 136° |
| 2026-04-26 08:48 | 33.87204 | 10.77236 | 26 ft | 2 kts | 126° |
| 2026-04-26 08:48 | 33.87210 | 10.77223 | 26 ft | 1 kts | 101° |
| 2026-04-26 08:48 | 33.87211 | 10.77212 | 26 ft | 1 kts | 74° |
| 2026-04-26 08:49 | 33.87206 | 10.77200 | 26 ft | 2 kts | 52° |
| 2026-04-26 08:49 | 33.87195 | 10.77184 | 26 ft | 3 kts | 44° |
| 2026-04-26 08:49 | 33.87197 | 10.77188 | 26 ft | 3 kts | 46° |
| 2026-04-26 08:49 | 33.87208 | 10.77201 | 26 ft | 1 kts | 45° |
| 2026-04-26 08:50 | 33.87214 | 10.77208 | 26 ft | 1 kts | 45° |
| 2026-04-26 08:50 | 33.87219 | 10.77214 | 26 ft | 1 kts | 45° |
| 2026-04-26 08:50 | 33.87221 | 10.77216 | 26 ft | 0 kts | 45° |
| 2026-04-26 08:52 | 33.87225 | 10.77220 | 31 ft | 2 kts | 42° |
| 2026-04-26 08:53 | 33.87242 | 10.77236 | 28 ft | 5 kts | 32° |
| 2026-04-26 08:53 | 33.87278 | 10.77258 | 26 ft | 7 kts | 26° |
| 2026-04-26 08:53 | 33.87328 | 10.77288 | 29 ft | 9 kts | 26° |
| 2026-04-26 08:53 | 33.87351 | 10.77301 | 27 ft | 1 kts | 12° |
| 2026-04-26 08:54 | 33.87362 | 10.77288 | 28 ft | 5 kts | 305° |
| 2026-04-26 08:54 | 33.87360 | 10.77222 | 26 ft | 12 kts | 265° |
| 2026-04-26 08:54 | 33.87364 | 10.77090 | 26 ft | 19 kts | 269° |
| 2026-04-26 08:54 | 33.87358 | 10.76935 | 27 ft | 18 kts | 267° |
| 2026-04-26 08:55 | 33.87354 | 10.76781 | 22 ft | 18 kts | 268° |
| 2026-04-26 08:55 | 33.87350 | 10.76631 | 19 ft | 18 kts | 269° |
| 2026-04-26 08:55 | 33.87346 | 10.76486 | 20 ft | 17 kts | 267° |
| 2026-04-26 08:55 | 33.87344 | 10.76347 | 20 ft | 16 kts | 270° |
| 2026-04-26 08:56 | 33.87338 | 10.76208 | 16 ft | 17 kts | 270° |
| 2026-04-26 08:56 | 33.87354 | 10.76080 | 17 ft | 14 kts | 302° |
| 2026-04-26 08:56 | 33.87406 | 10.76053 | 18 ft | 0 kts | 359° |
| 2026-04-26 08:57 | 33.87410 | 10.76053 | 18 ft | 3 kts | 359° |
| 2026-04-26 08:58 | 33.87457 | 10.76052 | 19 ft | 10 kts | 1° |
| 2026-04-26 08:58 | 33.87502 | 10.76102 | 21 ft | 9 kts | 75° |
| 2026-04-26 08:58 | 33.87503 | 10.76127 | 21 ft | 0 kts | 88° |
| 2026-04-26 08:58 | 33.87505 | 10.76153 | 21 ft | 14 kts | 86° |
| 2026-04-26 08:59 | 33.87516 | 10.76569 | 20 ft | 84 kts | 88° |
| 2026-04-26 08:59 | 33.87541 | 10.77532 | 23 ft | 143 kts | 88° |
| 2026-04-26 08:59 | 33.87568 | 10.78895 | 280 ft | 173 kts | 88° |
| 2026-04-26 08:59 | 33.87635 | 10.80296 | 1174 ft | 167 kts | 79° |
| 2026-04-26 09:00 | 33.88216 | 10.81537 | 1877 ft | 178 kts | 43° |
| 2026-04-26 09:00 | 33.89429 | 10.82197 | 2307 ft | 209 kts | 11° |
| 2026-04-26 09:00 | 33.90879 | 10.82476 | 2956 ft | 210 kts | 17° |
| 2026-04-26 09:00 | 33.92291 | 10.82959 | 3439 ft | 223 kts | 16° |
| 2026-04-26 09:01 | 33.93764 | 10.83649 | 3835 ft | 236 kts | 36° |
| 2026-04-26 09:01 | 33.95015 | 10.85051 | 4108 ft | 260 kts | 47° |
| 2026-04-26 09:01 | 33.96328 | 10.86709 | 4518 ft | 278 kts | 45° |
| 2026-04-26 09:01 | 33.97677 | 10.88318 | 5658 ft | 268 kts | 43° |
| 2026-04-26 09:02 | 33.99051 | 10.89913 | 6234 ft | 284 kts | 41° |
| 2026-04-26 09:02 | 34.00465 | 10.91544 | 7210 ft | 275 kts | 41° |
| 2026-04-26 09:02 | 34.01867 | 10.93136 | 7975 ft | 280 kts | 40° |
| 2026-04-26 09:02 | 34.03264 | 10.94711 | 8870 ft | 276 kts | 39° |
| 2026-04-26 09:03 | 34.04664 | 10.96296 | 9643 ft | 282 kts | 39° |
| 2026-04-26 09:03 | 34.06150 | 10.97967 | 10077 ft | 295 kts | 38° |
| 2026-04-26 09:03 | 34.07648 | 10.99620 | 10915 ft | 294 kts | 38° |
| 2026-04-26 09:03 | 34.09224 | 11.01361 | 11038 ft | 322 kts | 38° |
| 2026-04-26 09:04 | 34.10895 | 11.03262 | 11500 ft | 330 kts | 38° |
| 2026-04-26 09:04 | 34.12515 | 11.05086 | 12858 ft | 308 kts | 38° |
| 2026-04-26 09:04 | 34.14063 | 11.06841 | 13809 ft | 307 kts | 37° |
| 2026-04-26 09:04 | 34.15660 | 11.08626 | 14003 ft | 328 kts | 37° |
| 2026-04-26 09:05 | 34.17357 | 11.10488 | 14620 ft | 329 kts | 37° |
| 2026-04-26 09:05 | 34.19042 | 11.12345 | 15426 ft | 326 kts | 37° |
| 2026-04-26 09:05 | 34.20715 | 11.14207 | 16105 ft | 329 kts | 37° |
| 2026-04-26 09:05 | 34.22407 | 11.16109 | 16605 ft | 337 kts | 38° |
| 2026-04-26 09:06 | 34.24137 | 11.18074 | 17059 ft | 346 kts | 38° |
| 2026-04-26 09:06 | 34.25891 | 11.20094 | 17666 ft | 350 kts | 38° |
| 2026-04-26 09:06 | 34.27663 | 11.22124 | 18300 ft | 353 kts | 38° |
| 2026-04-26 09:06 | 34.29462 | 11.24164 | 18833 ft | 357 kts | 38° |
| 2026-04-26 09:07 | 34.31259 | 11.26199 | 19324 ft | 361 kts | 38° |
| 2026-04-26 09:07 | 34.33100 | 11.28296 | 19825 ft | 366 kts | 38° |
| 2026-04-26 09:07 | 34.34952 | 11.30426 | 20356 ft | 369 kts | 39° |
| 2026-04-26 09:07 | 34.36851 | 11.32570 | 20623 ft | 381 kts | 38° |
| 2026-04-26 09:08 | 34.38853 | 11.34769 | 20734 ft | 396 kts | 38° |
| 2026-04-26 09:08 | 34.40926 | 11.37056 | 20844 ft | 411 kts | 38° |
| 2026-04-26 09:08 | 34.43049 | 11.39430 | 21147 ft | 419 kts | 39° |
| 2026-04-26 09:08 | 34.45185 | 11.41846 | 21631 ft | 421 kts | 39° |
| 2026-04-26 09:09 | 34.47301 | 11.44248 | 22139 ft | 424 kts | 39° |
| 2026-04-26 09:09 | 34.49465 | 11.46693 | 22589 ft | 426 kts | 37° |
| 2026-04-26 09:09 | 34.51862 | 11.48786 | 22989 ft | 424 kts | 25° |
| 2026-04-26 09:09 | 34.54532 | 11.50275 | 23443 ft | 422 kts | 15° |
| 2026-04-26 09:10 | 34.57361 | 11.51148 | 23850 ft | 419 kts | 5° |
| 2026-04-26 09:10 | 34.60246 | 11.51724 | 24243 ft | 421 kts | 4° |
| 2026-04-26 09:10 | 34.63148 | 11.52260 | 24633 ft | 423 kts | 4° |
| 2026-04-26 09:10 | 34.66062 | 11.52792 | 25024 ft | 425 kts | 4° |
| 2026-04-26 09:11 | 34.68993 | 11.53336 | 25401 ft | 427 kts | 4° |
| 2026-04-26 09:11 | 34.71894 | 11.53887 | 25762 ft | 429 kts | 4° |
| 2026-04-26 09:11 | 34.74853 | 11.54459 | 26115 ft | 432 kts | 4° |
| 2026-04-26 09:11 | 34.77826 | 11.55043 | 26462 ft | 434 kts | 4° |
| 2026-04-26 09:12 | 34.80814 | 11.55634 | 26805 ft | 436 kts | 4° |
| 2026-04-26 09:12 | 34.83820 | 11.56232 | 27137 ft | 439 kts | 4° |
| 2026-04-26 09:12 | 34.86834 | 11.56832 | 27467 ft | 441 kts | 4° |
| 2026-04-26 09:12 | 34.89869 | 11.57438 | 27786 ft | 443 kts | 4° |
| 2026-04-26 09:13 | 34.92916 | 11.58047 | 28109 ft | 445 kts | 4° |
| 2026-04-26 09:13 | 34.95982 | 11.58659 | 28410 ft | 447 kts | 4° |
| 2026-04-26 09:13 | 34.99016 | 11.59265 | 28714 ft | 449 kts | 4° |
| 2026-04-26 09:13 | 35.02112 | 11.59884 | 29018 ft | 451 kts | 4° |
| 2026-04-26 09:14 | 35.05219 | 11.60506 | 29310 ft | 453 kts | 4° |
| 2026-04-26 09:14 | 35.08341 | 11.61131 | 29598 ft | 455 kts | 4° |
| 2026-04-26 09:14 | 35.11476 | 11.61759 | 29881 ft | 457 kts | 4° |
| 2026-04-26 09:14 | 35.14623 | 11.62390 | 30159 ft | 459 kts | 5° |
| 2026-04-26 09:15 | 35.17777 | 11.63023 | 30458 ft | 459 kts | 5° |
| 2026-04-26 09:15 | 35.20924 | 11.63657 | 30817 ft | 457 kts | 5° |
| 2026-04-26 09:15 | 35.24016 | 11.64280 | 31187 ft | 455 kts | 5° |
| 2026-04-26 09:15 | 35.27136 | 11.64909 | 31532 ft | 454 kts | 5° |
| 2026-04-26 09:16 | 35.30249 | 11.65536 | 31817 ft | 454 kts | 5° |
| 2026-04-26 09:16 | 35.33366 | 11.66163 | 32095 ft | 454 kts | 5° |
| 2026-04-26 09:16 | 35.36480 | 11.66790 | 32412 ft | 453 kts | 5° |
| 2026-04-26 09:16 | 35.39587 | 11.67417 | 32734 ft | 452 kts | 5° |
| 2026-04-26 09:17 | 35.42691 | 11.68044 | 33020 ft | 452 kts | 5° |
| 2026-04-26 09:17 | 35.45792 | 11.68670 | 33279 ft | 452 kts | 5° |
| 2026-04-26 09:17 | 35.48895 | 11.69297 | 33549 ft | 452 kts | 5° |
| 2026-04-26 09:17 | 35.51994 | 11.69924 | 33830 ft | 451 kts | 5° |
| 2026-04-26 09:18 | 35.55049 | 11.70543 | 34094 ft | 451 kts | 5° |
| 2026-04-26 09:18 | 35.58143 | 11.71170 | 34325 ft | 451 kts | 5° |
| 2026-04-26 09:18 | 35.61242 | 11.71799 | 34527 ft | 451 kts | 5° |
| 2026-04-26 09:18 | 35.64335 | 11.72427 | 34744 ft | 451 kts | 5° |
| 2026-04-26 09:19 | 35.67429 | 11.73055 | 34952 ft | 451 kts | 5° |
| 2026-04-26 09:19 | 35.70525 | 11.73685 | 35155 ft | 451 kts | 5° |
| 2026-04-26 09:19 | 35.73617 | 11.74314 | 35367 ft | 450 kts | 5° |
| 2026-04-26 09:19 | 35.76707 | 11.74943 | 35559 ft | 450 kts | 5° |
| 2026-04-26 09:20 | 35.79759 | 11.75565 | 35742 ft | 451 kts | 5° |
| 2026-04-26 09:20 | 35.82848 | 11.76195 | 35935 ft | 450 kts | 5° |
| 2026-04-26 09:20 | 35.85939 | 11.76827 | 36139 ft | 450 kts | 5° |
| 2026-04-26 09:20 | 35.89025 | 11.77457 | 36320 ft | 450 kts | 5° |
| 2026-04-26 09:21 | 35.92116 | 11.78089 | 36519 ft | 449 kts | 5° |
| 2026-04-26 09:21 | 35.95189 | 11.78718 | 36782 ft | 447 kts | 5° |
| 2026-04-26 09:21 | 35.98251 | 11.79346 | 37033 ft | 445 kts | 5° |
| 2026-04-26 09:21 | 36.01296 | 11.79971 | 37207 ft | 445 kts | 5° |
| 2026-04-26 09:22 | 36.04364 | 11.80598 | 37187 ft | 448 kts | 5° |
| 2026-04-26 09:22 | 36.10546 | 11.81865 | 37195 ft | 451 kts | 6° |
| 2026-04-26 09:23 | 36.16693 | 11.83130 | 37195 ft | 451 kts | 6° |
| 2026-04-26 09:23 | 36.22888 | 11.84407 | 37194 ft | 451 kts | 6° |
| 2026-04-26 09:24 | 36.29083 | 11.85686 | 37193 ft | 451 kts | 6° |
| 2026-04-26 09:24 | 36.35267 | 11.86964 | 37191 ft | 450 kts | 6° |
| 2026-04-26 09:25 | 36.41398 | 11.88234 | 37189 ft | 449 kts | 6° |
| 2026-04-26 09:25 | 36.47550 | 11.89509 | 37192 ft | 448 kts | 6° |
| 2026-04-26 09:26 | 36.53689 | 11.90784 | 37191 ft | 446 kts | 6° |
| 2026-04-26 09:26 | 36.59810 | 11.92058 | 37184 ft | 445 kts | 6° |
| 2026-04-26 09:27 | 36.65906 | 11.93328 | 37185 ft | 444 kts | 6° |
| 2026-04-26 09:27 | 36.71952 | 11.94589 | 37185 ft | 443 kts | 6° |
| 2026-04-26 09:28 | 36.78032 | 11.95860 | 37188 ft | 443 kts | 6° |
| 2026-04-26 09:28 | 36.84110 | 11.97152 | 37186 ft | 444 kts | 7° |
| 2026-04-26 09:29 | 36.90189 | 11.98541 | 37193 ft | 444 kts | 7° |
| 2026-04-26 09:29 | 36.96231 | 11.99944 | 37187 ft | 445 kts | 7° |
| 2026-04-26 09:30 | 37.02318 | 12.01351 | 37188 ft | 445 kts | 7° |
| 2026-04-26 09:30 | 37.08417 | 12.02755 | 37188 ft | 446 kts | 7° |
| 2026-04-26 09:31 | 37.14529 | 12.04162 | 37188 ft | 447 kts | 7° |
| 2026-04-26 09:31 | 37.20613 | 12.05565 | 37183 ft | 448 kts | 7° |
| 2026-04-26 09:32 | 37.26748 | 12.06982 | 37184 ft | 449 kts | 7° |
| 2026-04-26 09:32 | 37.32885 | 12.08402 | 37182 ft | 449 kts | 7° |
| 2026-04-26 09:33 | 37.39043 | 12.09829 | 37185 ft | 449 kts | 8° |
| 2026-04-26 09:33 | 37.45147 | 12.11247 | 37185 ft | 449 kts | 8° |
| 2026-04-26 09:34 | 37.51303 | 12.12678 | 37174 ft | 449 kts | 8° |
| 2026-04-26 09:34 | 37.57444 | 12.14109 | 37175 ft | 448 kts | 8° |
| 2026-04-26 09:35 | 37.63574 | 12.15539 | 37178 ft | 448 kts | 8° |
| 2026-04-26 09:35 | 37.69692 | 12.16969 | 37178 ft | 447 kts | 8° |
| 2026-04-26 09:36 | 37.75764 | 12.18391 | 37179 ft | 446 kts | 8° |
| 2026-04-26 09:36 | 37.81858 | 12.19820 | 37177 ft | 445 kts | 8° |
| 2026-04-26 09:37 | 37.87949 | 12.21250 | 37179 ft | 445 kts | 8° |
| 2026-04-26 09:37 | 37.94026 | 12.22680 | 37179 ft | 444 kts | 8° |
| 2026-04-26 09:38 | 38.00057 | 12.24101 | 37179 ft | 444 kts | 8° |
| 2026-04-26 09:38 | 38.06129 | 12.25535 | 37178 ft | 444 kts | 8° |
| 2026-04-26 09:39 | 38.12199 | 12.26970 | 37175 ft | 444 kts | 8° |
| 2026-04-26 09:39 | 38.18273 | 12.28409 | 37174 ft | 444 kts | 8° |
| 2026-04-26 09:40 | 38.24305 | 12.29840 | 37172 ft | 444 kts | 8° |
| 2026-04-26 09:40 | 38.30389 | 12.31286 | 37169 ft | 445 kts | 8° |
| 2026-04-26 09:41 | 38.36476 | 12.32735 | 37177 ft | 445 kts | 8° |
| 2026-04-26 09:41 | 38.42565 | 12.34187 | 37174 ft | 446 kts | 8° |
| 2026-04-26 09:42 | 38.48508 | 12.35607 | 37176 ft | 446 kts | 8° |
| 2026-04-26 09:42 | 38.54710 | 12.37091 | 37177 ft | 446 kts | 8° |
| 2026-04-26 09:43 | 38.60817 | 12.38555 | 37176 ft | 446 kts | 8° |
| 2026-04-26 09:43 | 38.66918 | 12.40020 | 37179 ft | 446 kts | 8° |
| 2026-04-26 09:44 | 38.73020 | 12.41488 | 37184 ft | 446 kts | 8° |
| 2026-04-26 09:44 | 38.79082 | 12.42949 | 37185 ft | 446 kts | 8° |
| 2026-04-26 09:45 | 38.85179 | 12.44421 | 37189 ft | 446 kts | 8° |
| 2026-04-26 09:45 | 38.91279 | 12.45896 | 37191 ft | 446 kts | 8° |
| 2026-04-26 09:46 | 38.97373 | 12.47372 | 37194 ft | 446 kts | 8° |
| 2026-04-26 09:46 | 39.03464 | 12.48850 | 37196 ft | 446 kts | 9° |
| 2026-04-26 09:47 | 39.09516 | 12.50321 | 37196 ft | 446 kts | 9° |
| 2026-04-26 09:47 | 39.15608 | 12.51804 | 37197 ft | 446 kts | 9° |
| 2026-04-26 09:48 | 39.21701 | 12.53291 | 37197 ft | 446 kts | 9° |
| 2026-04-26 09:48 | 39.27796 | 12.54780 | 37200 ft | 446 kts | 9° |
| 2026-04-26 09:49 | 39.33853 | 12.56263 | 37198 ft | 446 kts | 9° |
| 2026-04-26 09:49 | 39.39952 | 12.57758 | 37195 ft | 446 kts | 9° |
| 2026-04-26 09:50 | 39.46049 | 12.59256 | 37196 ft | 446 kts | 9° |
| 2026-04-26 09:50 | 39.52153 | 12.60758 | 37195 ft | 447 kts | 9° |
| 2026-04-26 09:51 | 39.58216 | 12.62253 | 37195 ft | 447 kts | 9° |
| 2026-04-26 09:51 | 39.64327 | 12.63763 | 37192 ft | 447 kts | 9° |
| 2026-04-26 09:52 | 39.70437 | 12.65274 | 37194 ft | 447 kts | 9° |
| 2026-04-26 09:52 | 39.79563 | 12.67538 | 37193 ft | 447 kts | 9° |
| 2026-04-26 09:53 | 39.85674 | 12.69057 | 37193 ft | 447 kts | 9° |
| 2026-04-26 09:53 | 39.91782 | 12.70577 | 37191 ft | 447 kts | 9° |
| 2026-04-26 09:54 | 39.97891 | 12.72101 | 37191 ft | 447 kts | 9° |
| 2026-04-26 09:54 | 40.03998 | 12.73628 | 37192 ft | 447 kts | 9° |
| 2026-04-26 09:55 | 40.10056 | 12.75145 | 37189 ft | 446 kts | 9° |
| 2026-04-26 09:55 | 40.16159 | 12.76676 | 37190 ft | 446 kts | 9° |
| 2026-04-26 09:56 | 40.22253 | 12.78207 | 37186 ft | 446 kts | 9° |
| 2026-04-26 09:56 | 40.28345 | 12.79741 | 37185 ft | 446 kts | 9° |
| 2026-04-26 09:57 | 40.34395 | 12.81266 | 37184 ft | 446 kts | 9° |
| 2026-04-26 09:57 | 40.40482 | 12.82804 | 37183 ft | 445 kts | 9° |
| 2026-04-26 09:58 | 40.46565 | 12.84344 | 37181 ft | 445 kts | 9° |
| 2026-04-26 09:58 | 40.52650 | 12.85888 | 37183 ft | 445 kts | 10° |
| 2026-04-26 09:59 | 40.57706 | 12.87172 | 37184 ft | 445 kts | 10° |
| 2026-04-26 09:59 | 40.64770 | 12.88970 | 37174 ft | 445 kts | 10° |
| 2026-04-26 10:00 | 40.70852 | 12.90521 | 37176 ft | 445 kts | 10° |
| 2026-04-26 10:00 | 40.76938 | 12.92076 | 37188 ft | 445 kts | 10° |
| 2026-04-26 10:01 | 40.83024 | 12.93634 | 37179 ft | 445 kts | 10° |
| 2026-04-26 10:01 | 40.89069 | 12.95184 | 37186 ft | 446 kts | 10° |
| 2026-04-26 10:02 | 40.95171 | 12.96657 | 37171 ft | 446 kts | 8° |
| 2026-04-26 10:02 | 41.01306 | 12.97914 | 37165 ft | 446 kts | 7° |
| 2026-04-26 10:03 | 41.07436 | 12.99151 | 37181 ft | 446 kts | 7° |
| 2026-04-26 10:03 | 41.13565 | 13.00417 | 37176 ft | 446 kts | 8° |
| 2026-04-26 10:04 | 41.19644 | 13.01692 | 37173 ft | 445 kts | 8° |
| 2026-04-26 10:04 | 41.25764 | 13.02983 | 37174 ft | 445 kts | 8° |
| 2026-04-26 10:05 | 41.31876 | 13.04274 | 37172 ft | 445 kts | 8° |
| 2026-04-26 10:05 | 41.37994 | 13.05569 | 37171 ft | 445 kts | 8° |
| 2026-04-26 10:06 | 41.44066 | 13.06857 | 37165 ft | 445 kts | 8° |
| 2026-04-26 10:06 | 41.50184 | 13.08157 | 37171 ft | 445 kts | 8° |
| 2026-04-26 10:07 | 41.56294 | 13.09457 | 37169 ft | 445 kts | 8° |
| 2026-04-26 10:07 | 41.62403 | 13.10759 | 37159 ft | 444 kts | 8° |
| 2026-04-26 10:08 | 41.68471 | 13.12056 | 37155 ft | 444 kts | 8° |
| 2026-04-26 10:08 | 41.74573 | 13.13362 | 37150 ft | 444 kts | 7° |
| 2026-04-26 10:09 | 41.79648 | 13.14450 | 37159 ft | 444 kts | 7° |
| 2026-04-26 10:09 | 41.86775 | 13.15981 | 37152 ft | 444 kts | 7° |
| 2026-04-26 10:10 | 41.92867 | 13.17293 | 37153 ft | 443 kts | 7° |
| 2026-04-26 10:10 | 41.98914 | 13.18597 | 37147 ft | 443 kts | 7° |
| 2026-04-26 10:11 | 42.04995 | 13.19911 | 37147 ft | 443 kts | 8° |
| 2026-04-26 10:11 | 42.11074 | 13.21228 | 37146 ft | 442 kts | 7° |
| 2026-04-26 10:12 | 42.17151 | 13.22546 | 37147 ft | 442 kts | 8° |
| 2026-04-26 10:12 | 42.23191 | 13.23860 | 37134 ft | 443 kts | 7° |
| 2026-04-26 10:13 | 42.29266 | 13.25182 | 37149 ft | 442 kts | 8° |
| 2026-04-26 10:13 | 42.35327 | 13.26505 | 37144 ft | 441 kts | 7° |
| 2026-04-26 10:14 | 42.40363 | 13.27606 | 37145 ft | 441 kts | 8° |
| 2026-04-26 10:14 | 42.46434 | 13.28936 | 37142 ft | 442 kts | 8° |
| 2026-04-26 10:15 | 42.53483 | 13.30483 | 37142 ft | 442 kts | 8° |
| 2026-04-26 10:15 | 42.59554 | 13.31818 | 37131 ft | 442 kts | 8° |
| 2026-04-26 10:16 | 42.64593 | 13.32929 | 37142 ft | 442 kts | 8° |
| 2026-04-26 10:16 | 42.70662 | 13.34268 | 37137 ft | 442 kts | 8° |
| 2026-04-26 10:17 | 42.76735 | 13.35611 | 37128 ft | 442 kts | 8° |
| 2026-04-26 10:17 | 42.82792 | 13.36954 | 37130 ft | 441 kts | 8° |
| 2026-04-26 10:18 | 42.88843 | 13.38297 | 37137 ft | 440 kts | 8° |
| 2026-04-26 10:18 | 42.94838 | 13.39631 | 37132 ft | 440 kts | 8° |
| 2026-04-26 10:19 | 43.00878 | 13.40979 | 37123 ft | 440 kts | 8° |
| 2026-04-26 10:19 | 43.06909 | 13.42326 | 37129 ft | 439 kts | 8° |
| 2026-04-26 10:20 | 43.12932 | 13.43674 | 37129 ft | 439 kts | 8° |
| 2026-04-26 10:20 | 43.18914 | 13.45015 | 37133 ft | 438 kts | 8° |
| 2026-04-26 10:21 | 43.24937 | 13.46368 | 37133 ft | 438 kts | 8° |
| 2026-04-26 10:21 | 43.30962 | 13.47725 | 37132 ft | 439 kts | 8° |
| 2026-04-26 10:22 | 43.36986 | 13.49084 | 37126 ft | 439 kts | 8° |
| 2026-04-26 10:22 | 43.42972 | 13.50438 | 37138 ft | 439 kts | 8° |
| 2026-04-26 10:23 | 43.49005 | 13.51805 | 37130 ft | 439 kts | 8° |
| 2026-04-26 10:23 | 43.55013 | 13.53168 | 37128 ft | 439 kts | 8° |
| 2026-04-26 10:24 | 43.61048 | 13.54541 | 37133 ft | 439 kts | 8° |
| 2026-04-26 10:24 | 43.67065 | 13.55913 | 37133 ft | 439 kts | 8° |
| 2026-04-26 10:25 | 43.73109 | 13.57293 | 37132 ft | 439 kts | 8° |
| 2026-04-26 10:25 | 43.79109 | 13.58666 | 37135 ft | 439 kts | 8° |
| 2026-04-26 10:26 | 43.85144 | 13.60050 | 37132 ft | 439 kts | 8° |
| 2026-04-26 10:26 | 43.91144 | 13.61429 | 37136 ft | 438 kts | 8° |
| 2026-04-26 10:27 | 43.97168 | 13.62816 | 37136 ft | 438 kts | 8° |
| 2026-04-26 10:27 | 44.03194 | 13.64207 | 37135 ft | 438 kts | 8° |
| 2026-04-26 10:28 | 44.09181 | 13.65591 | 37134 ft | 438 kts | 8° |
| 2026-04-26 10:28 | 44.15211 | 13.66989 | 37129 ft | 438 kts | 8° |
| 2026-04-26 10:29 | 44.21193 | 13.68377 | 37125 ft | 438 kts | 8° |
| 2026-04-26 10:29 | 44.27226 | 13.69658 | 37125 ft | 438 kts | 6° |
| 2026-04-26 10:30 | 44.33289 | 13.70802 | 37120 ft | 438 kts | 6° |
| 2026-04-26 10:30 | 44.39306 | 13.71937 | 37120 ft | 438 kts | 6° |
| 2026-04-26 10:31 | 44.45364 | 13.73102 | 37118 ft | 439 kts | 6° |
| 2026-04-26 10:31 | 44.51425 | 13.74281 | 37119 ft | 439 kts | 6° |
| 2026-04-26 10:32 | 44.57449 | 13.75458 | 37117 ft | 440 kts | 6° |
| 2026-04-26 10:32 | 44.63526 | 13.76647 | 37116 ft | 440 kts | 6° |
| 2026-04-26 10:33 | 44.69568 | 13.77833 | 37104 ft | 440 kts | 6° |
| 2026-04-26 10:33 | 44.75645 | 13.79027 | 37108 ft | 440 kts | 6° |
| 2026-04-26 10:34 | 44.81722 | 13.80224 | 37101 ft | 441 kts | 6° |
| 2026-04-26 10:34 | 44.87766 | 13.81416 | 37106 ft | 441 kts | 6° |
| 2026-04-26 10:35 | 44.93856 | 13.82621 | 37108 ft | 441 kts | 6° |
| 2026-04-26 10:35 | 44.99953 | 13.83829 | 37102 ft | 442 kts | 6° |
| 2026-04-26 10:36 | 45.06014 | 13.85033 | 37093 ft | 442 kts | 6° |
| 2026-04-26 10:36 | 45.12115 | 13.86247 | 37109 ft | 442 kts | 6° |
| 2026-04-26 10:37 | 45.18173 | 13.87456 | 37099 ft | 442 kts | 5° |
| 2026-04-26 10:37 | 45.24267 | 13.88674 | 37108 ft | 442 kts | 5° |
| 2026-04-26 10:38 | 45.30369 | 13.89897 | 37105 ft | 442 kts | 5° |
| 2026-04-26 10:38 | 45.36437 | 13.91115 | 37103 ft | 442 kts | 5° |
| 2026-04-26 10:39 | 45.42539 | 13.92343 | 37098 ft | 442 kts | 5° |
| 2026-04-26 10:39 | 45.48605 | 13.93566 | 37105 ft | 442 kts | 5° |
| 2026-04-26 10:40 | 45.54702 | 13.94798 | 37095 ft | 442 kts | 5° |
| 2026-04-26 10:40 | 45.60816 | 13.96036 | 37096 ft | 442 kts | 5° |
| 2026-04-26 10:41 | 45.66890 | 13.97270 | 37101 ft | 441 kts | 5° |
| 2026-04-26 10:41 | 45.72974 | 13.98507 | 37106 ft | 442 kts | 5° |
| 2026-04-26 10:42 | 45.79063 | 13.99748 | 37100 ft | 442 kts | 5° |
| 2026-04-26 10:42 | 45.85113 | 14.00985 | 37107 ft | 442 kts | 5° |
| 2026-04-26 10:43 | 45.91209 | 14.02232 | 37111 ft | 442 kts | 5° |
| 2026-04-26 10:43 | 45.97300 | 14.03482 | 37107 ft | 442 kts | 5° |
| 2026-04-26 10:44 | 46.03373 | 14.04732 | 37112 ft | 442 kts | 5° |
| 2026-04-26 10:44 | 46.09479 | 14.05991 | 37116 ft | 442 kts | 4° |
| 2026-04-26 10:45 | 46.15575 | 14.07250 | 37119 ft | 442 kts | 4° |
| 2026-04-26 10:45 | 46.21676 | 14.08514 | 37131 ft | 442 kts | 4° |
| 2026-04-26 10:46 | 46.27758 | 14.09775 | 37125 ft | 443 kts | 4° |
| 2026-04-26 10:46 | 46.33876 | 14.11047 | 37128 ft | 442 kts | 4° |
| 2026-04-26 10:47 | 46.39941 | 14.12313 | 37133 ft | 442 kts | 4° |
| 2026-04-26 10:47 | 46.46052 | 14.13590 | 37143 ft | 443 kts | 4° |
| 2026-04-26 10:48 | 46.52128 | 14.14862 | 37133 ft | 443 kts | 4° |
| 2026-04-26 10:48 | 46.58246 | 14.16146 | 37135 ft | 443 kts | 4° |
| 2026-04-26 10:49 | 46.64330 | 14.17426 | 37132 ft | 443 kts | 4° |
| 2026-04-26 10:49 | 46.70460 | 14.18719 | 37136 ft | 443 kts | 4° |
| 2026-04-26 10:50 | 46.75541 | 14.19792 | 37136 ft | 443 kts | 4° |
| 2026-04-26 10:50 | 46.82665 | 14.21300 | 37146 ft | 443 kts | 4° |
| 2026-04-26 10:51 | 46.91802 | 14.23242 | 37150 ft | 444 kts | 4° |
| 2026-04-26 10:52 | 46.97934 | 14.24547 | 37160 ft | 444 kts | 4° |
| 2026-04-26 10:52 | 47.04030 | 14.25849 | 37165 ft | 444 kts | 4° |
| 2026-04-26 10:53 | 47.10149 | 14.27159 | 37172 ft | 444 kts | 4° |
| 2026-04-26 10:53 | 47.16279 | 14.28474 | 37181 ft | 443 kts | 4° |
| 2026-04-26 10:54 | 47.25416 | 14.30440 | 37170 ft | 444 kts | 4° |
| 2026-04-26 10:54 | 47.31532 | 14.31761 | 37179 ft | 442 kts | 4° |
| 2026-04-26 10:55 | 47.37619 | 14.33078 | 37184 ft | 440 kts | 3° |
| 2026-04-26 10:55 | 47.42621 | 14.34161 | 37199 ft | 439 kts | 4° |
| 2026-04-26 10:56 | 47.49691 | 14.35694 | 37213 ft | 438 kts | 3° |
| 2026-04-26 10:56 | 47.55703 | 14.37005 | 37196 ft | 439 kts | 3° |
| 2026-04-26 10:57 | 47.61748 | 14.38326 | 37202 ft | 439 kts | 3° |
| 2026-04-26 10:57 | 47.67828 | 14.39655 | 37211 ft | 441 kts | 3° |
| 2026-04-26 10:58 | 47.73887 | 14.40984 | 37212 ft | 442 kts | 3° |
| 2026-04-26 10:58 | 47.80004 | 14.42330 | 37214 ft | 443 kts | 3° |
| 2026-04-26 10:59 | 47.86074 | 14.43668 | 37208 ft | 443 kts | 3° |
| 2026-04-26 10:59 | 47.92171 | 14.44751 | 37202 ft | 436 kts | 354° |
| 2026-04-26 11:00 | 47.98183 | 14.44202 | 37211 ft | 431 kts | 350° |
| 2026-04-26 11:00 | 48.04117 | 14.43471 | 37232 ft | 430 kts | 350° |
| 2026-04-26 11:01 | 48.10091 | 14.42779 | 37215 ft | 429 kts | 350° |
| 2026-04-26 11:01 | 48.16047 | 14.42131 | 37223 ft | 429 kts | 350° |
| 2026-04-26 11:02 | 48.21971 | 14.41498 | 37210 ft | 428 kts | 350° |
| 2026-04-26 11:02 | 48.27907 | 14.40865 | 37224 ft | 427 kts | 350° |
| 2026-04-26 11:03 | 48.33899 | 14.40220 | 36847 ft | 432 kts | 350° |
| 2026-04-26 11:03 | 48.36890 | 14.39901 | 36576 ft | 428 kts | 350° |
| 2026-04-26 11:03 | 48.39854 | 14.39585 | 36316 ft | 426 kts | 350° |
| 2026-04-26 11:04 | 48.42774 | 14.39272 | 36082 ft | 424 kts | 350° |
| 2026-04-26 11:04 | 48.45713 | 14.38956 | 35836 ft | 423 kts | 350° |
| 2026-04-26 11:04 | 48.48654 | 14.38638 | 35592 ft | 422 kts | 350° |
| 2026-04-26 11:04 | 48.51576 | 14.38322 | 35346 ft | 421 kts | 350° |
| 2026-04-26 11:05 | 48.54500 | 14.38006 | 35104 ft | 420 kts | 350° |
| 2026-04-26 11:05 | 48.57420 | 14.37689 | 34865 ft | 419 kts | 350° |
| 2026-04-26 11:05 | 48.60290 | 14.37379 | 34637 ft | 418 kts | 350° |
| 2026-04-26 11:05 | 48.63193 | 14.37063 | 34398 ft | 417 kts | 350° |
| 2026-04-26 11:06 | 48.66091 | 14.36748 | 34162 ft | 416 kts | 350° |
| 2026-04-26 11:06 | 48.68004 | 14.36539 | 33975 ft | 416 kts | 350° |
| 2026-04-26 11:06 | 48.71832 | 14.36122 | 33624 ft | 415 kts | 350° |
| 2026-04-26 11:06 | 48.74702 | 14.35810 | 33356 ft | 413 kts | 350° |
| 2026-04-26 11:07 | 48.77559 | 14.35500 | 33028 ft | 408 kts | 350° |
| 2026-04-26 11:07 | 48.80386 | 14.35193 | 32647 ft | 404 kts | 349° |
| 2026-04-26 11:07 | 48.83177 | 14.34887 | 32258 ft | 400 kts | 349° |
| 2026-04-26 11:07 | 48.85921 | 14.34586 | 31879 ft | 397 kts | 349° |
| 2026-04-26 11:08 | 48.88676 | 14.34282 | 31500 ft | 394 kts | 349° |
| 2026-04-26 11:08 | 48.91405 | 14.33983 | 31119 ft | 392 kts | 349° |
| 2026-04-26 11:08 | 48.94118 | 14.33683 | 30749 ft | 389 kts | 349° |
| 2026-04-26 11:08 | 48.96747 | 14.33128 | 30357 ft | 383 kts | 343° |
| 2026-04-26 11:09 | 48.99359 | 14.32359 | 29925 ft | 380 kts | 342° |
| 2026-04-26 11:09 | 49.01940 | 14.31558 | 29512 ft | 376 kts | 342° |
| 2026-04-26 11:09 | 49.03640 | 14.31025 | 29237 ft | 374 kts | 342° |
| 2026-04-26 11:09 | 49.07013 | 14.29974 | 28731 ft | 370 kts | 342° |
| 2026-04-26 11:10 | 49.08685 | 14.29457 | 28467 ft | 368 kts | 342° |
| 2026-04-26 11:10 | 49.11195 | 14.28687 | 28079 ft | 365 kts | 342° |
| 2026-04-26 11:10 | 49.13677 | 14.27929 | 27704 ft | 362 kts | 342° |
| 2026-04-26 11:10 | 49.16148 | 14.27177 | 27324 ft | 359 kts | 342° |
| 2026-04-26 11:11 | 49.18570 | 14.26440 | 26955 ft | 357 kts | 342° |
| 2026-04-26 11:11 | 49.21001 | 14.25701 | 26583 ft | 355 kts | 342° |
| 2026-04-26 11:11 | 49.23426 | 14.24963 | 26214 ft | 353 kts | 342° |
| 2026-04-26 11:11 | 49.25829 | 14.24231 | 25852 ft | 351 kts | 342° |
| 2026-04-26 11:12 | 49.28189 | 14.23511 | 25478 ft | 349 kts | 342° |
| 2026-04-26 11:12 | 49.30572 | 14.22784 | 25110 ft | 347 kts | 342° |
| 2026-04-26 11:12 | 49.32943 | 14.22060 | 24748 ft | 346 kts | 342° |
| 2026-04-26 11:12 | 49.35301 | 14.21339 | 24370 ft | 345 kts | 342° |
| 2026-04-26 11:13 | 49.37652 | 14.20620 | 24000 ft | 343 kts | 342° |
| 2026-04-26 11:13 | 49.39995 | 14.19901 | 23578 ft | 343 kts | 342° |
| 2026-04-26 11:13 | 49.42302 | 14.19194 | 23181 ft | 341 kts | 343° |
| 2026-04-26 11:13 | 49.44626 | 14.18482 | 22787 ft | 338 kts | 343° |
| 2026-04-26 11:14 | 49.46936 | 14.17773 | 22426 ft | 335 kts | 343° |
| 2026-04-26 11:14 | 49.49226 | 14.17069 | 22046 ft | 333 kts | 343° |
| 2026-04-26 11:14 | 49.51473 | 14.16377 | 21703 ft | 331 kts | 343° |
| 2026-04-26 11:14 | 49.53726 | 14.15683 | 21334 ft | 329 kts | 343° |
| 2026-04-26 11:15 | 49.55939 | 14.15001 | 20985 ft | 326 kts | 343° |
| 2026-04-26 11:15 | 49.58162 | 14.14315 | 20635 ft | 324 kts | 343° |
| 2026-04-26 11:15 | 49.60376 | 14.13630 | 20288 ft | 322 kts | 343° |
| 2026-04-26 11:15 | 49.62574 | 14.12951 | 19928 ft | 321 kts | 344° |
| 2026-04-26 11:16 | 49.64782 | 14.12410 | 19567 ft | 324 kts | 354° |
| 2026-04-26 11:16 | 49.67044 | 14.12805 | 19233 ft | 328 kts | 6° |
| 2026-04-26 11:16 | 49.69253 | 14.13518 | 18858 ft | 329 kts | 7° |
| 2026-04-26 11:16 | 49.71489 | 14.14279 | 18521 ft | 327 kts | 7° |
| 2026-04-26 11:17 | 49.73714 | 14.15027 | 18123 ft | 326 kts | 7° |
| 2026-04-26 11:17 | 49.75928 | 14.15753 | 17760 ft | 324 kts | 7° |
| 2026-04-26 11:17 | 49.78135 | 14.16463 | 17393 ft | 322 kts | 7° |
| 2026-04-26 11:17 | 49.80300 | 14.17153 | 17058 ft | 320 kts | 7° |
| 2026-04-26 11:18 | 49.82474 | 14.17844 | 16705 ft | 319 kts | 7° |
| 2026-04-26 11:18 | 49.84416 | 14.18579 | 16377 ft | 321 kts | 17° |
| 2026-04-26 11:18 | 49.86319 | 14.20433 | 16047 ft | 328 kts | 39° |
| 2026-04-26 11:18 | 49.87691 | 14.23287 | 15733 ft | 333 kts | 58° |
| 2026-04-26 11:19 | 49.88709 | 14.26449 | 15419 ft | 332 kts | 60° |
| 2026-04-26 11:19 | 49.89719 | 14.29678 | 15087 ft | 330 kts | 60° |
| 2026-04-26 11:19 | 49.90733 | 14.32873 | 14755 ft | 330 kts | 60° |
| 2026-04-26 11:19 | 49.91710 | 14.36101 | 14412 ft | 332 kts | 68° |
| 2026-04-26 11:20 | 49.92007 | 14.39629 | 14069 ft | 337 kts | 94° |
| 2026-04-26 11:20 | 49.91682 | 14.42029 | 13793 ft | 339 kts | 109° |
| 2026-04-26 11:20 | 49.90032 | 14.46155 | 13312 ft | 338 kts | 128° |
| 2026-04-26 11:20 | 49.88573 | 14.49015 | 12954 ft | 337 kts | 129° |
| 2026-04-26 11:21 | 49.87118 | 14.51879 | 12600 ft | 337 kts | 128° |
| 2026-04-26 11:21 | 49.85705 | 14.54710 | 12345 ft | 333 kts | 127° |
| 2026-04-26 11:21 | 49.84297 | 14.57566 | 12029 ft | 332 kts | 127° |
| 2026-04-26 11:21 | 49.82900 | 14.60410 | 11717 ft | 332 kts | 127° |
| 2026-04-26 11:22 | 49.81505 | 14.63257 | 11391 ft | 331 kts | 127° |
| 2026-04-26 11:22 | 49.80112 | 14.66096 | 11062 ft | 331 kts | 127° |
| 2026-04-26 11:22 | 49.78734 | 14.68899 | 10758 ft | 330 kts | 127° |
| 2026-04-26 11:22 | 49.77342 | 14.71726 | 10489 ft | 327 kts | 127° |
| 2026-04-26 11:23 | 49.76035 | 14.74519 | 10312 ft | 313 kts | 117° |
| 2026-04-26 11:23 | 49.75410 | 14.77640 | 10079 ft | 298 kts | 91° |
| 2026-04-26 11:23 | 49.75626 | 14.80721 | 9835 ft | 281 kts | 68° |
| 2026-04-26 11:23 | 49.76431 | 14.83388 | 9585 ft | 268 kts | 52° |
| 2026-04-26 11:24 | 49.77670 | 14.85452 | 9255 ft | 256 kts | 27° |
| 2026-04-26 11:24 | 49.79293 | 14.86082 | 8958 ft | 239 kts | 349° |
| 2026-04-26 11:24 | 49.80807 | 14.85169 | 8726 ft | 235 kts | 327° |
| 2026-04-26 11:24 | 49.82056 | 14.83502 | 8429 ft | 242 kts | 305° |
| 2026-04-26 11:25 | 49.82655 | 14.81069 | 8190 ft | 248 kts | 278° |
| 2026-04-26 11:25 | 49.83037 | 14.78456 | 7905 ft | 251 kts | 300° |
| 2026-04-26 11:25 | 49.84256 | 14.76710 | 7726 ft | 242 kts | 336° |
| 2026-04-26 11:25 | 49.85889 | 14.76016 | 7418 ft | 242 kts | 335° |
| 2026-04-26 11:26 | 49.87106 | 14.74359 | 7208 ft | 230 kts | 303° |
| 2026-04-26 11:26 | 49.87946 | 14.72278 | 6966 ft | 227 kts | 303° |
| 2026-04-26 11:26 | 49.88821 | 14.70215 | 6795 ft | 230 kts | 304° |
| 2026-04-26 11:26 | 49.89734 | 14.68140 | 6603 ft | 235 kts | 305° |
| 2026-04-26 11:27 | 49.90669 | 14.66001 | 6381 ft | 241 kts | 305° |
| 2026-04-26 11:27 | 49.91611 | 14.64000 | 6385 ft | 226 kts | 308° |
| 2026-04-26 11:27 | 49.92589 | 14.62100 | 6105 ft | 227 kts | 310° |
| 2026-04-26 11:27 | 49.93596 | 14.60191 | 5839 ft | 227 kts | 308° |
| 2026-04-26 11:28 | 49.94567 | 14.58242 | 5564 ft | 227 kts | 308° |
| 2026-04-26 11:28 | 49.95506 | 14.56304 | 5308 ft | 226 kts | 307° |
| 2026-04-26 11:28 | 49.96418 | 14.54394 | 5140 ft | 218 kts | 306° |
| 2026-04-26 11:28 | 49.97316 | 14.52528 | 4878 ft | 212 kts | 307° |
| 2026-04-26 11:29 | 49.98183 | 14.50734 | 4610 ft | 200 kts | 307° |
| 2026-04-26 11:29 | 49.98987 | 14.49083 | 4403 ft | 190 kts | 309° |
| 2026-04-26 11:29 | 49.99755 | 14.47471 | 4161 ft | 181 kts | 307° |
| 2026-04-26 11:29 | 50.00485 | 14.45940 | 4047 ft | 172 kts | 307° |
| 2026-04-26 11:30 | 50.01215 | 14.44422 | 3995 ft | 178 kts | 307° |
| 2026-04-26 11:30 | 50.01695 | 14.43383 | 3847 ft | 178 kts | 306° |
| 2026-04-26 11:30 | 50.02686 | 14.41352 | 3533 ft | 173 kts | 308° |
| 2026-04-26 11:30 | 50.03390 | 14.39853 | 3306 ft | 168 kts | 306° |
| 2026-04-26 11:31 | 50.04089 | 14.38455 | 3221 ft | 157 kts | 309° |
| 2026-04-26 11:31 | 50.04761 | 14.37110 | 2729 ft | 150 kts | 306° |
| 2026-04-26 11:31 | 50.05308 | 14.35898 | 2804 ft | 130 kts | 306° |
| 2026-04-26 11:31 | 50.05875 | 14.34749 | 2532 ft | 136 kts | 308° |
| 2026-04-26 11:32 | 50.06450 | 14.33594 | 2338 ft | 132 kts | 307° |
| 2026-04-26 11:32 | 50.06997 | 14.32405 | 2076 ft | 137 kts | 308° |
| 2026-04-26 11:32 | 50.07580 | 14.31226 | 1883 ft | 138 kts | 308° |
| 2026-04-26 11:32 | 50.08146 | 14.30035 | 1621 ft | 136 kts | 309° |
| 2026-04-26 11:33 | 50.08709 | 14.28869 | 1389 ft | 133 kts | 309° |
| 2026-04-26 11:33 | 50.09251 | 14.27727 | 1245 ft | 128 kts | 309° |
| 2026-04-26 11:33 | 50.09739 | 14.26734 | 1207 ft | 98 kts | 307° |
| 2026-04-26 11:33 | 50.10091 | 14.25993 | 1190 ft | 76 kts | 307° |
| 2026-04-26 11:34 | 50.10282 | 14.25698 | 1186 ft | 16 kts | 336° |
| 2026-04-26 11:34 | 50.10374 | 14.25662 | 1183 ft | 13 kts | 354° |
| 2026-04-26 11:34 | 50.10465 | 14.25671 | 1177 ft | 13 kts | 14° |